EFJO

Joensuu Airport

Joensuu / Liperi, Finland
METAR EFJO 160320Z AUTO 23003KT 9999 OVC004 M09/M10 Q1035
Observed Flight Rules
Dec-16 @ 03:20 UTC (31 minutes ago) Instrument Flight Rules
Wind Visibility Clouds
230° at 3 knots 10,000+ meters
  • Overcast at 400' AGL
Temperatures Readings
Current -9°C / 16°F
Dewpoint -10°C / 14°F
Humidity 93%
Altimeter 30.56" Hg
Pressure 1035 hPa
Elevation 117
METAR EFJO 160320Z AUTO 23003KT 9999 OVC004 M09/M10 Q1035
Observed Flight Rules
Dec-16 @ 03:20 UTC
(31 minutes ago)
LIFR
Wind Visibility
230° at 3 knots 10,000+ meters
Clouds
  • Overcast at 400' AGL
Temperature Dewpoint
-9°C / 16°F -10°C / 14°F
Humidity Altimeter Pressure
93% 30.56" Hg 1035 hPa